Time;durP1;ratioP1;P1;durP2;ratioP2;P2;SDS_P1;SDS_P2;PMS_P1;PMS_P2;Temp;Humidity;BMP_temperature;BMP_pressure;BME280_temperature;BME280_humidity;BME280_pressure;Samples;Min_cycle;Max_cycle;Signal;HPM_P1;HPM_P2
2022/04/19 00:00:35;;;;;;;8.07;4.53;;;8.90;91.30;;;;;;4910940;29;20040;-80
2022/04/19 00:03:02;;;;;;;10.40;5.07;;;8.90;90.70;;;;;;4910401;29;20503;-81
2022/04/19 00:05:29;;;;;;;6.50;4.72;;;8.90;90.50;;;;;;4906472;29;20080;-83
2022/04/19 00:07:55;;;;;;;7.97;4.60;;;9.00;90.40;;;;;;4905059;29;20061;-82
2022/04/19 00:10:21;;;;;;;7.90;4.70;;;8.90;90.50;;;;;;4916226;29;20076;-81
2022/04/19 00:12:47;;;;;;;6.43;4.53;;;9.00;90.10;;;;;;4918379;29;20016;-80
2022/04/19 00:15:15;;;;;;;8.32;4.43;;;9.00;90.40;;;;;;4919229;29;20035;-83
2022/04/19 00:17:41;;;;;;;9.85;4.57;;;8.90;90.10;;;;;;4920491;29;20100;-80
2022/04/19 00:20:08;;;;;;;8.25;4.30;;;8.90;89.80;;;;;;4919376;29;20088;-82
2022/04/19 00:22:34;;;;;;;10.85;4.95;;;9.00;89.10;;;;;;4919977;29;20119;-82
2022/04/19 00:25:00;;;;;;;9.68;5.10;;;9.00;88.90;;;;;;4920290;29;20028;-80
2022/04/19 00:27:26;;;;;;;8.55;4.45;;;9.00;88.40;;;;;;4918911;29;20041;-81
2022/04/19 00:29:53;;;;;;;10.07;4.53;;;9.00;87.40;;;;;;4919336;29;20163;-82
2022/04/19 00:32:20;;;;;;;9.30;4.65;;;9.10;87.30;;;;;;4919839;29;20040;-81
2022/04/19 00:34:46;;;;;;;6.60;4.28;;;9.00;87.10;;;;;;4919610;29;20023;-80
2022/04/19 00:37:13;;;;;;;9.05;4.53;;;9.00;86.80;;;;;;4919734;29;20032;-82
2022/04/19 00:39:40;;;;;;;8.30;4.30;;;9.00;86.50;;;;;;4915877;29;20056;-82
2022/04/19 00:42:07;;;;;;;8.48;4.32;;;9.00;86.10;;;;;;4917913;29;20086;-82
2022/04/19 00:44:37;;;;;;;7.05;4.55;;;9.00;85.40;;;;;;4917220;29;20372;-82
2022/04/19 00:47:10;;;;;;;7.05;4.60;;;9.00;85.80;;;;;;4916895;29;20032;-81
2022/04/19 00:49:42;;;;;;;7.85;4.55;;;9.00;85.90;;;;;;4911812;29;20072;-82
2022/04/19 00:52:10;;;;;;;6.60;4.55;;;9.10;86.30;;;;;;4910984;29;20036;-82
2022/04/19 00:54:36;;;;;;;5.80;3.72;;;9.00;86.30;;;;;;4910111;29;20088;-81
2022/04/19 00:57:03;;;;;;;7.97;4.30;;;9.10;86.50;;;;;;4915048;29;20032;-81
2022/04/19 00:59:29;;;;;;;8.77;4.22;;;9.10;86.10;;;;;;4917038;29;20079;-81
2022/04/19 01:01:55;;;;;;;5.95;3.75;;;9.10;86.10;;;;;;4917696;29;20043;-82
2022/04/19 01:04:22;;;;;;;7.88;4.13;;;9.00;86.40;;;;;;4909765;29;20033;-82
2022/04/19 01:06:48;;;;;;;7.60;4.57;;;9.00;86.70;;;;;;4908457;29;20037;-81
2022/04/19 01:09:15;;;;;;;8.30;4.45;;;9.00;86.70;;;;;;4907457;29;20033;-82
2022/04/19 01:14:28;;;;;;;12.88;4.60;;;8.90;86.90;;;;;;4910009;29;20028;-82
2022/04/19 01:16:55;;;;;;;9.68;4.43;;;8.90;87.20;;;;;;4909434;29;20025;-81
2022/04/19 01:19:21;;;;;;;6.88;4.30;;;9.00;87.20;;;;;;4913224;29;20092;-81
2022/04/19 01:21:57;;;;;;;6.60;4.53;;;9.00;87.30;;;;;;4910530;29;20064;-82
2022/04/19 01:24:36;;;;;;;10.32;4.97;;;9.00;86.80;;;;;;4905573;29;20039;-81
2022/04/19 01:27:03;;;;;;;8.10;4.45;;;9.00;86.80;;;;;;4914158;29;20043;-80
2022/04/19 01:29:29;;;;;;;5.85;3.92;;;8.90;87.20;;;;;;4915862;29;20076;-79
2022/04/19 01:31:55;;;;;;;7.35;4.47;;;8.90;85.80;;;;;;4917069;29;20116;-81
2022/04/19 01:34:22;;;;;;;8.68;4.63;;;8.90;86.30;;;;;;4922358;29;20028;-80
2022/04/19 01:36:52;;;;;;;7.05;4.63;;;8.90;85.60;;;;;;4919833;29;20124;-79
2022/04/19 01:40:16;;;;;;;6.70;3.97;;;8.90;85.20;;;;;;4918838;29;20051;-81
2022/04/19 01:42:05;;;;;;;7.20;4.32;;;9.00;84.80;;;;;;4919125;29;20056;-82
2022/04/19 01:44:33;;;;;;;6.95;4.38;;;9.00;84.70;;;;;;4894297;29;20115;-82
2022/04/19 01:47:02;;;;;;;8.55;4.32;;;9.00;84.60;;;;;;4909227;29;20246;-81
2022/04/19 01:49:28;;;;;;;7.10;4.20;;;9.10;84.30;;;;;;4910052;29;20032;-81
2022/04/19 01:51:54;;;;;;;8.77;4.80;;;9.10;83.90;;;;;;4918777;29;20041;-80
2022/04/19 01:54:20;;;;;;;8.68;4.65;;;9.10;92.60;;;;;;4919121;29;20033;-82
2022/04/19 01:56:48;;;;;;;9.00;4.72;;;9.00;94.10;;;;;;4919566;29;20028;-81
2022/04/19 01:59:25;;;;;;;7.25;4.32;;;8.90;95.00;;;;;;4918231;29;20063;-81
2022/04/19 02:02:03;;;;;;;6.88;4.57;;;8.90;95.70;;;;;;4912780;29;20032;-82
2022/04/19 02:04:30;;;;;;;7.32;4.22;;;8.80;94.40;;;;;;4910908;29;20036;-81
2022/04/19 02:06:57;;;;;;;9.48;4.90;;;8.70;93.50;;;;;;4913340;29;20032;-81
2022/04/19 02:09:24;;;;;;;9.45;4.65;;;8.60;93.60;;;;;;4903928;29;20115;-82
2022/04/19 02:11:50;;;;;;;6.95;4.20;;;8.60;93.70;;;;;;4908389;29;20084;-81
2022/04/19 02:14:31;;;;;;;9.63;4.68;;;8.50;93.50;;;;;;4911314;29;20059;-81
2022/04/19 02:16:57;;;;;;;9.05;4.40;;;8.50;93.10;;;;;;4915974;29;20035;-81
2022/04/19 02:19:23;;;;;;;7.30;4.38;;;8.50;93.20;;;;;;4913793;29;20036;-81
2022/04/19 02:21:49;;;;;;;11.20;5.00;;;8.50;93.20;;;;;;4913611;29;20108;-81
2022/04/19 02:24:15;;;;;;;8.32;4.70;;;8.50;93.50;;;;;;4914330;29;20021;-82
2022/04/19 02:26:42;;;;;;;8.82;4.57;;;8.50;93.80;;;;;;4915734;29;20033;-81
2022/04/19 02:29:08;;;;;;;7.57;5.40;;;8.50;94.10;;;;;;4911172;29;20033;-81
2022/04/19 02:31:39;;;;;;;7.28;4.50;;;8.50;94.30;;;;;;4908370;29;20046;-83
2022/04/19 02:34:06;;;;;;;10.13;5.53;;;8.50;94.80;;;;;;4907887;29;20076;-81
2022/04/19 02:36:34;;;;;;;8.77;5.18;;;8.40;95.20;;;;;;4905782;29;20076;-82
2022/04/19 02:39:01;;;;;;;8.43;4.72;;;8.40;94.80;;;;;;4904995;29;20033;-82
2022/04/19 02:41:28;;;;;;;10.18;4.47;;;8.50;94.40;;;;;;4905505;29;20056;-82
2022/04/19 02:44:00;;;;;;;5.78;4.05;;;8.50;93.30;;;;;;4904101;29;20079;-82
2022/04/19 02:46:29;;;;;;;9.57;5.03;;;8.50;93.20;;;;;;4906378;29;20100;-82
2022/04/19 02:48:58;;;;;;;11.40;4.95;;;8.60;93.00;;;;;;4907510;29;20108;-80
2022/04/19 02:51:24;;;;;;;8.38;4.60;;;8.60;92.90;;;;;;4910600;29;20019;-83
2022/04/19 02:53:50;;;;;;;8.43;5.43;;;8.60;92.90;;;;;;4915088;29;20040;-82
2022/04/19 02:56:16;;;;;;;10.13;4.70;;;8.60;92.70;;;;;;4905837;29;20036;-82
2022/04/19 02:58:44;;;;;;;7.28;4.55;;;8.60;92.80;;;;;;4912431;29;20067;-81
2022/04/19 03:01:11;;;;;;;7.53;4.93;;;8.60;92.60;;;;;;4909815;29;20037;-81
2022/04/19 03:03:37;;;;;;;10.60;5.18;;;8.60;92.50;;;;;;4912354;29;20086;-80
2022/04/19 03:06:03;;;;;;;9.80;5.03;;;8.60;92.30;;;;;;4916264;29;20040;-80
2022/04/19 03:08:32;;;;;;;8.50;4.50;;;8.60;92.40;;;;;;4914809;29;20020;-81
2022/04/19 03:10:59;;;;;;;8.18;4.93;;;8.60;92.70;;;;;;4904880;29;20396;-84
2022/04/19 03:13:27;;;;;;;9.13;4.65;;;8.70;92.00;;;;;;4904927;29;20032;-82
2022/04/19 03:15:53;;;;;;;8.38;4.32;;;8.70;91.30;;;;;;4906233;29;20492;-81
2022/04/19 03:18:20;;;;;;;8.77;4.45;;;8.70;91.40;;;;;;4904354;29;20024;-83
2022/04/19 03:20:46;;;;;;;7.88;4.82;;;8.70;91.40;;;;;;4910567;29;20036;-83
2022/04/19 03:28:47;;;;;;;9.73;5.13;;;8.70;92.10;;;;;;4922044;29;20040;-83
2022/04/19 03:31:14;;;;;;;9.20;4.47;;;8.60;92.00;;;;;;4921868;29;20016;-83
2022/04/19 03:33:40;;;;;;;6.53;4.25;;;8.60;91.80;;;;;;4922240;29;20049;-83
2022/04/19 03:36:10;;;;;;;13.32;4.63;;;8.60;92.30;;;;;;4920304;29;20531;-81
2022/04/19 03:38:36;;;;;;;9.13;4.15;;;8.60;92.20;;;;;;4914716;29;20050;-83
2022/04/19 03:41:03;;;;;;;8.70;4.25;;;8.50;92.10;;;;;;4916146;29;20033;-82
2022/04/19 03:43:32;;;;;;;11.07;4.35;;;8.50;92.30;;;;;;4906366;29;20047;-82
2022/04/19 03:45:59;;;;;;;8.98;4.57;;;8.50;92.30;;;;;;4910763;29;20028;-82
2022/04/19 03:48:25;;;;;;;11.02;4.35;;;8.50;92.50;;;;;;4911233;29;20533;-82
2022/04/19 03:50:52;;;;;;;7.10;4.05;;;8.50;92.60;;;;;;4904691;29;20155;-82
2022/04/19 03:53:17;;;;;;;7.55;4.30;;;8.50;92.70;;;;;;4905536;29;20571;-83
2022/04/19 03:55:43;;;;;;;10.70;4.30;;;8.40;92.60;;;;;;4906983;29;20025;-81
2022/04/19 03:58:09;;;;;;;8.20;4.55;;;8.40;92.60;;;;;;4907563;29;20029;-83
2022/04/19 04:00:35;;;;;;;8.35;4.57;;;8.40;92.50;;;;;;4909273;29;20032;-82
2022/04/19 04:03:01;;;;;;;12.77;4.22;;;8.40;92.40;;;;;;4910062;29;20060;-82
2022/04/19 04:05:29;;;;;;;10.68;4.43;;;8.40;92.70;;;;;;4894187;29;20382;-85
2022/04/19 04:07:57;;;;;;;9.63;5.00;;;8.30;93.10;;;;;;4909588;29;20032;-85
2022/04/19 04:10:24;;;;;;;10.00;4.85;;;8.30;93.00;;;;;;4907329;29;20033;-83
2022/04/19 04:12:51;;;;;;;9.07;4.55;;;8.30;93.30;;;;;;4906647;29;20052;-83
2022/04/19 04:15:17;;;;;;;12.30;5.05;;;8.30;93.50;;;;;;4912717;29;20039;-83
2022/04/19 04:17:43;;;;;;;8.45;4.68;;;8.30;93.80;;;;;;4893743;29;20394;-81
2022/04/19 04:20:10;;;;;;;7.93;4.80;;;8.30;94.20;;;;;;4906779;29;20032;-81
2022/04/19 04:22:36;;;;;;;7.85;4.47;;;8.20;94.50;;;;;;4908118;29;20071;-81
2022/04/19 04:25:02;;;;;;;9.02;4.85;;;8.20;94.20;;;;;;4906541;29;20032;-86
2022/04/19 04:27:31;;;;;;;8.20;4.90;;;8.20;94.40;;;;;;4894257;29;20128;-82
2022/04/19 04:29:59;;;;;;;10.55;4.80;;;8.20;94.60;;;;;;4911826;29;20032;-82
2022/04/19 04:32:25;;;;;;;11.48;4.97;;;8.20;94.40;;;;;;4915190;29;20032;-83
2022/04/19 04:34:51;;;;;;;14.60;5.13;;;8.30;94.50;;;;;;4916352;29;20148;-82
2022/04/19 04:37:17;;;;;;;15.07;5.03;;;8.30;94.50;;;;;;4917288;29;20056;-82
2022/04/19 04:39:48;;;;;;;11.32;5.28;;;8.40;94.40;;;;;;4914796;29;20057;-83
2022/04/19 04:42:26;;;;;;;9.93;4.85;;;8.40;94.50;;;;;;4915300;29;20051;-82
2022/04/19 04:44:59;;;;;;;10.73;5.78;;;8.40;94.20;;;;;;4915812;29;20033;-81
2022/04/19 04:50:11;;;;;;;7.55;4.55;;;8.40;94.30;;;;;;4917099;29;20043;-83
2022/04/19 04:52:38;;;;;;;10.80;5.75;;;8.40;94.50;;;;;;4918822;29;20064;-83
2022/04/19 04:55:07;;;;;;;10.85;4.97;;;8.40;94.30;;;;;;4919736;29;20013;-81
2022/04/19 04:57:34;;;;;;;11.10;5.45;;;8.40;94.60;;;;;;4917905;29;20024;-82
2022/04/19 04:59:59;;;;;;;10.70;5.75;;;8.40;94.60;;;;;;4914680;29;20072;-81
2022/04/19 05:02:28;;;;;;;9.35;5.35;;;8.40;94.70;;;;;;4912587;29;20025;-83
2022/04/19 05:04:54;;;;;;;8.98;5.30;;;8.30;94.90;;;;;;4914674;29;20033;-82
2022/04/19 05:07:21;;;;;;;10.85;5.25;;;8.30;94.80;;;;;;4902643;29;20016;-83
2022/04/19 05:09:52;;;;;;;11.55;6.03;;;8.30;95.10;;;;;;4904855;29;20041;-81
2022/04/19 05:12:19;;;;;;;8.68;5.18;;;8.40;94.80;;;;;;4901974;29;20092;-82
2022/04/19 05:14:45;;;;;;;15.73;6.40;;;8.30;95.00;;;;;;4895255;29;20428;-82
2022/04/19 05:17:11;;;;;;;12.30;5.40;;;8.40;95.40;;;;;;4908326;29;20063;-83
2022/04/19 05:19:41;;;;;;;11.00;5.85;;;8.40;95.40;;;;;;4894614;29;20038;-83
2022/04/19 05:22:08;;;;;;;10.27;5.18;;;8.40;95.60;;;;;;4910257;29;20062;-83
2022/04/19 05:24:34;;;;;;;14.30;5.63;;;8.30;95.70;;;;;;4909696;29;20057;-82
2022/04/19 05:27:00;;;;;;;17.58;6.63;;;8.30;95.90;;;;;;4909527;29;20076;-83
2022/04/19 05:29:26;;;;;;;15.95;5.55;;;8.30;96.00;;;;;;4894889;29;20032;-83
2022/04/19 05:31:53;;;;;;;8.95;5.15;;;8.30;96.10;;;;;;4917403;29;20113;-82
2022/04/19 05:34:19;;;;;;;9.68;5.43;;;8.30;96.30;;;;;;4919484;29;20036;-82
2022/04/19 05:36:44;;;;;;;13.52;5.70;;;8.40;96.20;;;;;;4919087;29;20033;-81
2022/04/19 05:39:12;;;;;;;11.57;5.18;;;8.40;96.20;;;;;;4920019;29;20054;-80
2022/04/19 05:41:40;;;;;;;10.57;5.45;;;8.50;96.30;;;;;;4924787;29;20025;-80
2022/04/19 05:44:07;;;;;;;10.70;5.47;;;8.60;96.40;;;;;;4922793;29;20031;-80
2022/04/19 05:46:36;;;;;;;9.07;4.97;;;8.70;96.10;;;;;;4924592;29;20044;-82
2022/04/19 05:49:04;;;;;;;10.68;5.50;;;8.70;95.90;;;;;;4926590;29;20036;-80
2022/04/19 05:51:33;;;;;;;9.82;5.22;;;8.80;95.90;;;;;;4923379;29;20021;-81
2022/04/19 05:54:01;;;;;;;10.80;5.72;;;8.80;95.90;;;;;;4934166;23;20051;-84
2022/04/19 05:56:27;;;;;;;14.15;5.28;;;8.80;95.90;;;;;;4910544;29;20025;-86
2022/04/19 05:58:52;;;;;;;10.95;5.43;;;8.80;96.10;;;;;;4896859;29;20033;-83
2022/04/19 06:01:19;;;;;;;8.30;4.80;;;8.80;95.40;;;;;;4912245;29;20036;-84
2022/04/19 06:06:31;;;;;;;9.57;4.82;;;8.80;95.40;;;;;;4911263;29;20096;-84
2022/04/19 06:08:56;;;;;;;12.85;5.07;;;8.80;95.30;;;;;;4912573;29;20039;-83
2022/04/19 06:11:22;;;;;;;11.77;5.00;;;8.80;95.50;;;;;;4914710;29;20039;-84
2022/04/19 06:13:48;;;;;;;8.55;4.75;;;8.80;95.50;;;;;;4911603;29;20208;-86
2022/04/19 06:16:15;;;;;;;10.80;5.40;;;8.70;95.40;;;;;;4893464;29;20057;-85
2022/04/19 06:18:46;;;;;;;10.00;4.80;;;8.80;95.30;;;;;;4893606;29;20029;-84
2022/04/19 06:21:19;;;;;;;8.43;5.03;;;8.70;95.50;;;;;;4910547;29;20104;-84
2022/04/19 06:23:45;;;;;;;8.95;4.80;;;8.70;95.50;;;;;;4909681;29;20087;-86
2022/04/19 06:26:11;;;;;;;10.40;4.93;;;8.70;95.60;;;;;;4911198;29;20557;-83
2022/04/19 06:28:37;;;;;;;8.55;4.57;;;8.70;95.20;;;;;;4911760;29;20453;-87
2022/04/19 06:31:22;;;;;;;6.63;4.07;;;8.80;95.00;;;;;;4913920;29;20092;-87
2022/04/19 06:33:54;;;;;;;8.73;5.03;;;8.70;95.00;;;;;;4924306;29;20044;-86
2022/04/19 06:36:26;;;;;;;9.23;4.15;;;8.60;95.40;;;;;;4924619;29;20019;-86
2022/04/19 06:38:52;;;;;;;8.20;4.45;;;8.60;96.20;;;;;;4908163;29;20040;-85
2022/04/19 06:41:18;;;;;;;8.25;5.00;;;8.70;96.00;;;;;;4907719;29;20017;-85
2022/04/19 06:43:46;;;;;;;14.32;5.95;;;8.50;96.40;;;;;;4922322;29;20024;-85
2022/04/19 06:46:18;;;;;;;12.75;5.15;;;8.60;97.60;;;;;;4906895;29;20013;-85
2022/04/19 06:49:07;;;;;;;7.97;4.57;;;8.50;97.60;;;;;;4913496;29;20041;-86
2022/04/19 06:51:34;;;;;;;9.40;4.50;;;8.50;97.60;;;;;;4911126;29;20036;-85
2022/04/19 06:54:03;;;;;;;8.07;4.40;;;8.60;97.80;;;;;;4895816;29;20033;-85
2022/04/19 06:56:47;;;;;;;13.90;4.78;;;8.60;97.30;;;;;;4911851;29;20029;-84
2022/04/19 06:59:13;;;;;;;16.52;6.93;;;8.60;97.60;;;;;;4913089;29;20033;-84
2022/04/19 07:01:42;;;;;;;9.27;4.72;;;8.60;97.10;;;;;;4898152;29;20105;-86
2022/04/19 07:04:27;;;;;;;11.70;5.13;;;8.50;97.50;;;;;;4914564;29;20094;-85
2022/04/19 07:06:55;;;;;;;10.07;4.43;;;8.60;98.80;;;;;;4913251;29;20037;-85
2022/04/19 07:09:21;;;;;;;8.65;4.70;;;8.70;97.90;;;;;;4910355;29;20025;-86
2022/04/19 07:11:48;;;;;;;11.95;5.07;;;8.70;98.60;;;;;;4909339;29;20044;-84
2022/04/19 07:14:19;;;;;;;10.50;5.00;;;8.60;98.20;;;;;;4908699;29;20029;-85
2022/04/19 07:16:58;;;;;;;10.50;5.55;;;8.60;98.90;;;;;;4909381;29;20044;-85
2022/04/19 07:19:24;;;;;;;11.52;5.63;;;8.60;98.70;;;;;;4893425;29;20066;-85
2022/04/19 07:27:30;;;;;;;12.07;5.80;;;8.50;99.90;;;;;;4913969;29;20033;-85
2022/04/19 07:29:56;;;;;;;11.95;5.47;;;8.40;99.90;;;;;;4919466;29;20097;-85
2022/04/19 07:32:23;;;;;;;9.32;5.47;;;8.30;99.90;;;;;;4919100;29;20028;-84
2022/04/19 07:34:58;;;;;;;10.73;6.55;;;8.30;99.90;;;;;;4916574;29;20044;-84
2022/04/19 07:37:24;;;;;;;10.40;6.18;;;8.40;99.90;;;;;;4916857;29;20029;-85
2022/04/19 07:39:51;;;;;;;9.13;5.70;;;8.40;99.90;;;;;;4917467;29;20087;-85
2022/04/19 07:42:18;;;;;;;11.43;6.03;;;8.40;99.90;;;;;;4919763;29;20021;-84
2022/04/19 07:44:44;;;;;;;10.48;6.25;;;8.40;99.90;;;;;;4917409;29;20031;-86
2022/04/19 07:47:10;;;;;;;16.23;7.72;;;8.40;99.90;;;;;;4919007;29;20035;-83
2022/04/19 07:49:36;;;;;;;21.23;9.55;;;8.50;99.90;;;;;;4917406;29;20039;-85
2022/04/19 07:52:08;;;;;;;18.23;7.35;;;8.50;99.90;;;;;;4912588;29;20112;-84
2022/04/19 07:54:35;;;;;;;12.48;6.65;;;8.60;99.90;;;;;;4916300;29;20128;-85
2022/04/19 07:57:01;;;;;;;11.63;6.75;;;8.70;99.90;;;;;;4892314;29;20447;-85
2022/04/19 07:59:27;;;;;;;13.95;6.18;;;8.80;99.90;;;;;;4893212;29;20029;-82
2022/04/19 08:01:53;;;;;;;14.13;7.65;;;8.80;99.90;;;;;;4893163;29;20032;-86
2022/04/19 08:04:20;;;;;;;12.15;6.47;;;8.90;99.90;;;;;;4896820;29;20105;-83
2022/04/19 08:06:46;;;;;;;15.52;6.25;;;9.10;99.90;;;;;;4896062;29;20057;-85
2022/04/19 08:09:12;;;;;;;11.27;6.25;;;9.30;99.90;;;;;;4914369;29;20048;-85
2022/04/19 08:11:39;;;;;;;13.20;6.47;;;9.60;99.90;;;;;;4918186;29;20468;-86
2022/04/19 08:14:04;;;;;;;12.15;6.13;;;9.90;99.90;;;;;;4916846;29;20099;-85
2022/04/19 08:16:30;;;;;;;15.70;6.63;;;10.00;99.90;;;;;;4918154;29;20005;-87
2022/04/19 08:18:56;;;;;;;12.55;6.47;;;10.10;99.90;;;;;;4918086;29;20032;-85
2022/04/19 08:21:22;;;;;;;12.85;6.28;;;10.20;99.90;;;;;;4896308;29;20024;-87
2022/04/19 08:23:49;;;;;;;9.55;5.82;;;10.20;99.90;;;;;;4900008;29;20021;-83
2022/04/19 08:26:19;;;;;;;9.95;5.78;;;10.20;99.90;;;;;;4930441;29;20025;-83
2022/04/19 08:28:45;;;;;;;11.65;5.97;;;10.20;99.90;;;;;;4934518;29;20031;-83
2022/04/19 08:31:12;;;;;;;9.55;5.68;;;10.30;99.90;;;;;;4935520;29;20096;-83
2022/04/19 08:33:38;;;;;;;10.85;6.07;;;10.40;99.90;;;;;;4939298;29;20054;-82
2022/04/19 08:36:06;;;;;;;9.38;5.38;;;10.40;99.90;;;;;;4938278;29;20028;-83
2022/04/19 08:38:32;;;;;;;9.48;5.68;;;10.30;99.90;;;;;;4935303;29;20028;-86
2022/04/19 08:41:00;;;;;;;10.07;6.38;;;10.50;99.90;;;;;;4932189;29;20028;-84
2022/04/19 08:43:27;;;;;;;10.25;5.47;;;10.30;99.90;;;;;;4931248;29;20052;-89
2022/04/19 08:45:53;;;;;;;10.13;6.25;;;10.50;99.90;;;;;;4935710;29;20060;-84
2022/04/19 08:48:23;;;;;;;11.73;6.60;;;10.60;99.90;;;;;;4938209;29;20047;-83
2022/04/19 08:50:51;;;;;;;11.45;6.35;;;10.40;99.90;;;;;;4930412;29;20188;-83
2022/04/19 08:58:46;;;;;;;10.75;6.72;;;10.30;99.90;;;;;;4920746;29;20032;-82
2022/04/19 09:01:12;;;;;;;12.15;6.70;;;10.20;99.90;;;;;;4920410;29;20043;-83
2022/04/19 09:03:39;;;;;;;12.52;6.57;;;10.10;99.90;;;;;;4920259;29;20033;-82
2022/04/19 09:06:05;;;;;;;13.45;6.80;;;9.90;99.90;;;;;;4919192;29;20025;-85
2022/04/19 09:08:31;;;;;;;13.43;7.32;;;9.80;99.90;;;;;;4919702;29;20044;-84
2022/04/19 09:11:05;;;;;;;10.25;6.50;;;9.80;99.90;;;;;;4921004;29;20034;-84
2022/04/19 09:13:31;;;;;;;14.48;6.45;;;9.80;99.90;;;;;;4918596;29;20165;-86
2022/04/19 09:16:06;;;;;;;11.20;6.82;;;9.60;99.90;;;;;;4916634;29;20029;-85
2022/04/19 09:18:35;;;;;;;11.13;6.53;;;9.60;99.90;;;;;;4922884;29;20032;-83
2022/04/19 09:21:05;;;;;;;15.60;6.68;;;9.50;99.90;;;;;;4926249;29;20016;-83
2022/04/19 09:23:34;;;;;;;12.98;7.13;;;9.50;99.90;;;;;;4929796;29;20059;-81
2022/04/19 09:26:05;;;;;;;13.10;6.85;;;9.40;99.90;;;;;;4936481;29;20039;-83
2022/04/19 09:28:33;;;;;;;13.70;7.38;;;9.40;99.90;;;;;;4925832;29;20043;-82
2022/04/19 09:31:00;;;;;;;16.90;7.05;;;9.40;99.90;;;;;;4923059;29;20008;-83
2022/04/19 09:33:29;;;;;;;12.07;6.85;;;9.40;99.90;;;;;;4912850;29;20044;-85
2022/04/19 09:36:03;;;;;;;12.70;6.90;;;9.50;99.90;;;;;;4939729;29;20032;-82
2022/04/19 09:38:32;;;;;;;12.30;6.85;;;9.40;99.90;;;;;;4901562;29;20013;-82
2022/04/19 09:40:58;;;;;;;12.60;7.13;;;9.30;99.90;;;;;;4907240;29;20084;-84
2022/04/19 09:43:24;;;;;;;11.65;6.50;;;9.30;99.90;;;;;;4920830;29;20036;-81
2022/04/19 09:45:56;;;;;;;11.32;7.22;;;9.20;99.90;;;;;;4921192;29;20021;-81
2022/04/19 09:48:31;;;;;;;16.42;7.97;;;9.10;99.90;;;;;;4920387;29;20539;-81
2022/04/19 09:51:26;;;;;;;12.52;6.63;;;9.00;99.90;;;;;;4917408;29;20043;-86
2022/04/19 09:53:52;;;;;;;13.55;7.30;;;8.90;99.90;;;;;;4914037;29;20052;-83
2022/04/19 09:56:23;;;;;;;10.23;6.70;;;8.70;99.90;;;;;;4919642;29;20043;-84
2022/04/19 09:58:51;;;;;;;13.38;7.40;;;8.60;99.90;;;;;;4922566;29;20055;-81
2022/04/19 10:09:39;;;;;;;12.60;6.80;;;8.40;99.90;;;;;;4924326;29;20043;-82
2022/04/19 10:12:06;;;;;;;9.20;6.78;;;8.30;99.90;;;;;;4924522;29;20027;-82
2022/04/19 10:14:33;;;;;;;9.32;6.55;;;8.10;99.90;;;;;;4924690;29;20092;-81
2022/04/19 10:17:04;;;;;;;11.60;7.10;;;8.00;99.90;;;;;;4923804;29;20039;-84
2022/04/19 10:19:30;;;;;;;8.90;6.63;;;8.00;99.90;;;;;;4924163;29;20060;-82
2022/04/19 10:22:03;;;;;;;10.93;6.47;;;7.80;99.90;;;;;;4926767;29;20012;-83
2022/04/19 10:24:28;;;;;;;11.13;6.75;;;7.80;99.90;;;;;;4935903;29;20036;-82
2022/04/19 10:26:55;;;;;;;13.55;6.68;;;7.70;99.90;;;;;;4938202;29;20051;-84
2022/04/19 10:29:32;;;;;;;13.65;6.78;;;7.70;99.90;;;;;;4937082;29;20027;-84
2022/04/19 10:32:06;;;;;;;10.30;6.38;;;7.70;99.90;;;;;;4911754;29;20036;-85
2022/04/19 10:34:34;;;;;;;13.55;7.78;;;7.70;99.90;;;;;;4936769;29;20042;-86
2022/04/19 10:37:12;;;;;;;11.00;7.50;;;7.60;99.90;;;;;;4922318;29;20058;-85
2022/04/19 10:40:08;;;;;;;15.13;8.48;;;7.60;99.90;;;;;;4922241;29;20056;-87
2022/04/19 10:42:34;;;;;;;10.45;7.10;;;7.60;99.90;;;;;;4890900;29;20077;-87
2022/04/19 10:45:15;;;;;;;13.05;7.25;;;7.70;99.90;;;;;;4908690;29;20040;-87
2022/04/19 10:47:53;;;;;;;10.25;7.35;;;7.60;99.90;;;;;;4911154;29;20046;-85
2022/04/19 10:50:24;;;;;;;10.98;7.25;;;7.70;99.90;;;;;;4912610;29;20036;-86
2022/04/19 10:52:51;;;;;;;10.70;7.00;;;7.60;99.90;;;;;;4913015;29;20036;-87
2022/04/19 10:55:24;;;;;;;10.60;7.20;;;7.70;99.90;;;;;;4910075;29;20028;-85
2022/04/19 10:58:12;;;;;;;11.32;7.38;;;7.70;99.90;;;;;;4911854;29;20028;-86
2022/04/19 11:00:40;;;;;;;13.63;7.43;;;7.70;99.90;;;;;;4910233;29;20037;-83
2022/04/19 11:03:18;;;;;;;10.48;7.20;;;7.80;99.90;;;;;;4909409;29;20025;-86
2022/04/19 11:05:58;;;;;;;11.90;6.85;;;8.00;99.90;;;;;;4918212;29;20028;-85
2022/04/19 11:08:26;;;;;;;10.27;7.00;;;7.90;99.90;;;;;;4926394;29;20025;-84
2022/04/19 11:11:20;;;;;;;11.95;7.68;;;7.90;99.90;;;;;;4927014;29;20084;-85
2022/04/19 11:14:15;;;;;;;12.50;7.63;;;7.80;99.90;;;;;;4924497;29;20088;-87
2022/04/19 11:16:41;;;;;;;11.65;7.22;;;7.70;99.90;;;;;;4919380;29;20031;-86
2022/04/19 11:19:17;;;;;;;10.43;7.22;;;7.60;99.90;;;;;;4927395;29;20047;-86
2022/04/19 11:21:59;;;;;;;10.75;7.05;;;7.60;99.90;;;;;;4925213;29;20039;-83
2022/04/19 11:25:03;;;;;;;11.80;8.00;;;7.70;99.90;;;;;;4923086;29;20088;-84
2022/04/19 11:27:54;;;;;;;11.20;7.90;;;7.70;99.90;;;;;;4923187;29;20017;-83
2022/04/19 11:30:26;;;;;;;14.35;8.07;;;7.70;99.90;;;;;;4922588;29;20048;-84
2022/04/19 11:32:58;;;;;;;11.57;7.82;;;7.60;99.90;;;;;;4921279;29;20088;-81
2022/04/19 11:35:26;;;;;;;10.52;7.40;;;7.60;99.90;;;;;;4922760;29;20025;-81
2022/04/19 11:37:51;;;;;;;13.77;7.00;;;7.60;99.90;;;;;;4922980;29;20016;-82
2022/04/19 11:48:53;;;;;;;10.18;6.97;;;7.90;99.90;;;;;;4922745;29;20033;-84
2022/04/19 11:51:20;;;;;;;10.43;6.35;;;7.90;99.90;;;;;;4921438;29;20025;-84
2022/04/19 11:53:47;;;;;;;10.93;6.18;;;7.80;99.90;;;;;;4937057;23;20052;-86
2022/04/19 11:56:13;;;;;;;9.20;6.07;;;7.60;99.90;;;;;;4915378;29;20033;-86
2022/04/19 11:58:48;;;;;;;7.85;5.85;;;7.50;99.90;;;;;;4912848;29;20048;-87
2022/04/19 12:01:15;;;;;;;9.35;6.50;;;7.50;99.90;;;;;;4913223;29;20040;-85
2022/04/19 12:03:42;;;;;;;9.13;6.10;;;7.60;99.90;;;;;;4914026;29;20059;-87
2022/04/19 12:06:09;;;;;;;8.70;6.03;;;7.50;99.90;;;;;;4915269;29;20032;-86
2022/04/19 12:08:38;;;;;;;9.70;6.65;;;7.50;99.90;;;;;;4880100;29;20037;-86
2022/04/19 12:11:06;;;;;;;12.70;7.22;;;7.50;99.90;;;;;;4895175;29;20167;-86
2022/04/19 12:13:32;;;;;;;10.95;7.95;;;7.50;99.90;;;;;;4896226;29;20108;-87
2022/04/19 12:16:00;;;;;;;13.23;7.63;;;7.40;99.90;;;;;;4894921;29;20482;-87
2022/04/19 12:18:34;;;;;;;11.60;7.57;;;7.40;99.90;;;;;;4895828;29;20032;-86
2022/04/19 12:21:01;;;;;;;11.03;7.50;;;7.30;99.90;;;;;;4895002;29;20090;-86
2022/04/19 12:23:27;;;;;;;12.73;7.65;;;7.30;99.90;;;;;;4894162;29;20484;-87
2022/04/19 12:26:03;;;;;;;12.90;7.55;;;7.30;99.90;;;;;;4886210;29;20039;-86
2022/04/19 12:28:47;;;;;;;15.07;9.05;;;7.30;99.90;;;;;;4877653;29;20038;-86
2022/04/19 12:31:32;;;;;;;13.15;7.93;;;7.30;99.90;;;;;;4882760;29;20047;-86
2022/04/19 12:33:59;;;;;;;10.00;7.35;;;7.30;99.90;;;;;;4878685;29;20127;-86
2022/04/19 12:36:26;;;;;;;10.15;7.35;;;7.30;99.90;;;;;;4881507;29;20032;-85
2022/04/19 12:39:04;;;;;;;11.05;6.40;;;7.40;99.90;;;;;;4882650;29;20049;-86
2022/04/19 12:41:44;;;;;;;10.07;6.35;;;7.40;99.90;;;;;;4900033;29;20108;-85
2022/04/19 12:44:13;;;;;;;12.43;6.43;;;7.40;99.90;;;;;;4884650;29;20037;-86
2022/04/19 12:46:50;;;;;;;11.43;6.18;;;7.40;99.90;;;;;;4884974;29;20025;-86
2022/04/19 12:49:26;;;;;;;11.40;6.82;;;7.40;99.90;;;;;;4880920;29;20049;-86
2022/04/19 12:52:02;;;;;;;10.48;6.53;;;7.50;99.90;;;;;;4876411;29;20031;-86
2022/04/19 12:54:29;;;;;;;9.93;5.88;;;7.60;99.90;;;;;;4875112;29;20045;-85
2022/04/19 12:57:03;;;;;;;11.88;6.53;;;7.70;99.90;;;;;;4876625;29;20069;-87
2022/04/19 12:59:30;;;;;;;12.20;7.07;;;7.70;99.90;;;;;;4875674;29;20044;-85
2022/04/19 13:01:57;;;;;;;10.70;7.05;;;7.70;99.90;;;;;;4875625;29;20058;-85
2022/04/19 13:04:23;;;;;;;8.32;6.00;;;7.70;99.90;;;;;;4875127;29;20105;-86
2022/04/19 13:12:19;;;;;;;11.43;7.47;;;7.50;99.90;;;;;;4880412;29;20463;-86
2022/04/19 13:14:51;;;;;;;12.07;6.50;;;7.50;99.90;;;;;;4879198;29;20062;-85
2022/04/19 13:17:17;;;;;;;9.93;5.40;;;7.50;99.90;;;;;;4879241;29;20037;-86
2022/04/19 13:19:45;;;;;;;10.90;6.80;;;7.60;99.90;;;;;;4876198;29;20036;-87
2022/04/19 13:22:11;;;;;;;20.20;8.32;;;7.60;99.90;;;;;;4874180;29;20063;-86
2022/04/19 13:24:38;;;;;;;9.95;6.30;;;7.60;99.90;;;;;;4875299;29;20033;-86
2022/04/19 13:27:07;;;;;;;11.35;6.22;;;7.40;99.90;;;;;;4882219;29;20053;-85
2022/04/19 13:29:40;;;;;;;9.52;5.82;;;7.50;99.90;;;;;;4885360;29;20042;-85
2022/04/19 13:32:07;;;;;;;10.95;6.53;;;7.50;99.90;;;;;;4900795;29;20044;-86
2022/04/19 13:34:34;;;;;;;10.07;5.97;;;7.50;99.90;;;;;;4900794;29;20021;-86
2022/04/19 13:37:02;;;;;;;11.30;6.25;;;7.40;99.90;;;;;;4902814;29;20037;-86
2022/04/19 13:39:28;;;;;;;9.68;6.47;;;7.30;99.90;;;;;;4898596;29;20075;-84
2022/04/19 13:41:54;;;;;;;9.98;6.32;;;7.40;99.90;;;;;;4898977;29;20048;-86
2022/04/19 13:44:20;;;;;;;9.25;6.18;;;7.50;99.90;;;;;;4905677;29;20029;-86
2022/04/19 13:46:48;;;;;;;12.63;6.93;;;7.60;99.90;;;;;;4906683;29;20025;-84